Time;durP1;ratioP1;P1;durP2;ratioP2;P2;SDS_P1;SDS_P2;PMS_P1;PMS_P2;Temp;Humidity;BMP_temperature;BMP_pressure;BME280_temperature;BME280_humidity;BME280_pressure;Samples;Min_cycle;Max_cycle;Signal;HPM_P1;HPM_P2
2024/02/17 00:02:24;;;;;;;1.70;1.38;;;13.30;99.90;;;;;;4983595;28;20038;-67
2024/02/17 00:04:50;;;;;;;1.88;1.40;;;13.30;99.90;;;;;;4983654;28;20041;-67
2024/02/17 00:07:16;;;;;;;2.47;1.48;;;13.30;99.90;;;;;;4983546;28;20022;-67
2024/02/17 00:09:43;;;;;;;1.60;1.30;;;13.20;99.90;;;;;;4983638;28;20109;-67
2024/02/17 00:12:09;;;;;;;1.85;1.40;;;13.30;99.90;;;;;;4983589;28;20045;-68
2024/02/17 00:14:36;;;;;;;2.00;1.30;;;13.20;99.90;;;;;;4983683;28;20561;-67
2024/02/17 00:17:02;;;;;;;2.97;1.35;;;13.30;99.90;;;;;;4983809;28;20092;-67
2024/02/17 00:19:29;;;;;;;1.73;1.08;;;13.30;99.90;;;;;;4983530;28;20089;-67
2024/02/17 00:21:55;;;;;;;2.88;1.10;;;13.30;99.90;;;;;;4981877;28;20030;-67
2024/02/17 00:24:21;;;;;;;1.55;1.25;;;13.30;99.90;;;;;;4981457;28;20541;-67
2024/02/17 00:26:48;;;;;;;2.45;1.00;;;13.30;99.90;;;;;;4983479;28;20121;-67
2024/02/17 00:29:15;;;;;;;2.25;1.27;;;13.30;99.90;;;;;;4981865;28;20025;-67
2024/02/17 00:31:46;;;;;;;2.22;1.33;;;13.30;99.90;;;;;;4981694;28;20085;-67
2024/02/17 00:34:13;;;;;;;2.03;1.40;;;13.20;99.90;;;;;;4982104;28;20116;-67
2024/02/17 00:36:39;;;;;;;2.05;1.42;;;13.20;99.90;;;;;;4982441;28;20046;-67
2024/02/17 00:39:05;;;;;;;1.60;1.50;;;13.20;99.90;;;;;;4982244;28;20089;-67
2024/02/17 00:41:31;;;;;;;1.80;1.30;;;13.10;99.90;;;;;;4981671;28;20042;-67
2024/02/17 00:43:57;;;;;;;3.28;1.70;;;13.10;99.90;;;;;;4982106;28;20039;-67
2024/02/17 00:46:23;;;;;;;1.67;1.50;;;13.10;99.90;;;;;;4982677;28;20033;-68
2024/02/17 00:48:49;;;;;;;3.42;1.52;;;13.00;99.90;;;;;;4981702;28;20034;-67
2024/02/17 00:51:15;;;;;;;1.58;1.48;;;13.00;99.90;;;;;;4985644;28;20022;-67
2024/02/17 00:53:45;;;;;;;2.40;2.00;;;12.90;99.90;;;;;;4986499;28;20026;-68
2024/02/17 00:56:14;;;;;;;2.35;1.98;;;12.90;99.90;;;;;;4984821;28;20485;-67
2024/02/17 00:58:40;;;;;;;2.45;2.17;;;12.90;99.90;;;;;;4985988;28;20046;-67
2024/02/17 01:01:06;;;;;;;2.13;1.58;;;12.80;99.90;;;;;;4985436;28;20513;-67
2024/02/17 01:03:34;;;;;;;4.05;1.67;;;12.80;99.90;;;;;;4985663;28;20749;-67
2024/02/17 01:06:00;;;;;;;2.17;1.88;;;12.90;99.90;;;;;;4985579;28;20034;-67
2024/02/17 01:08:25;;;;;;;3.08;2.25;;;12.90;99.90;;;;;;4985334;28;20402;-67
2024/02/17 01:10:51;;;;;;;1.77;1.63;;;12.90;99.90;;;;;;4985284;28;20565;-67
2024/02/17 01:13:17;;;;;;;3.03;2.10;;;13.00;99.90;;;;;;4986272;28;20038;-67
2024/02/17 01:15:43;;;;;;;2.35;1.83;;;13.00;99.90;;;;;;4985771;28;20073;-67
2024/02/17 01:18:09;;;;;;;1.67;1.58;;;13.00;99.90;;;;;;4986397;28;20038;-67
2024/02/17 01:20:35;;;;;;;1.65;1.52;;;13.00;99.90;;;;;;4985580;28;20048;-67
2024/02/17 01:23:01;;;;;;;2.13;1.90;;;13.10;99.90;;;;;;4985085;28;20032;-67
2024/02/17 01:25:27;;;;;;;2.17;1.73;;;13.10;99.90;;;;;;4985882;28;20022;-67
2024/02/17 01:27:53;;;;;;;2.42;1.70;;;13.10;99.90;;;;;;4985560;28;20465;-67
2024/02/17 01:30:19;;;;;;;3.08;1.60;;;13.00;99.90;;;;;;4985829;28;20052;-67
2024/02/17 01:32:45;;;;;;;2.10;1.90;;;13.00;99.90;;;;;;4985532;28;20081;-67
2024/02/17 01:35:13;;;;;;;4.28;2.03;;;12.90;99.90;;;;;;4984492;28;20119;-67
2024/02/17 01:37:39;;;;;;;2.63;1.75;;;12.90;99.90;;;;;;4985800;28;20038;-67
2024/02/17 01:40:06;;;;;;;2.63;2.38;;;12.90;99.90;;;;;;4985146;28;20096;-67
2024/02/17 01:42:32;;;;;;;2.28;2.00;;;12.90;99.90;;;;;;4984941;28;20034;-68
2024/02/17 01:44:59;;;;;;;2.15;1.90;;;12.90;99.90;;;;;;4984469;28;20035;-67
2024/02/17 01:47:25;;;;;;;2.45;2.20;;;12.90;99.90;;;;;;4984565;28;20030;-67
2024/02/17 01:49:53;;;;;;;3.22;2.22;;;12.90;99.90;;;;;;4984889;28;20038;-67
2024/02/17 01:52:20;;;;;;;1.98;1.80;;;12.90;99.90;;;;;;4982394;28;20511;-67
2024/02/17 01:54:46;;;;;;;4.25;2.50;;;12.90;99.90;;;;;;4985057;28;20693;-67
2024/02/17 01:57:12;;;;;;;4.78;2.42;;;12.90;99.90;;;;;;4983770;28;20065;-67
2024/02/17 01:59:41;;;;;;;3.50;2.42;;;12.90;99.90;;;;;;4983428;28;20026;-67
2024/02/17 02:02:07;;;;;;;4.03;2.63;;;12.90;99.90;;;;;;4981767;28;20064;-67
2024/02/17 02:04:34;;;;;;;4.32;2.28;;;12.90;99.90;;;;;;4984825;28;20034;-67
2024/02/17 02:07:00;;;;;;;3.03;2.28;;;12.80;99.90;;;;;;4985061;28;20023;-67
2024/02/17 02:09:26;;;;;;;4.28;2.70;;;12.80;99.90;;;;;;4985066;28;20032;-67
2024/02/17 02:11:53;;;;;;;2.90;2.55;;;12.80;99.90;;;;;;4982554;28;20363;-67
2024/02/17 02:14:20;;;;;;;3.65;2.95;;;12.80;99.90;;;;;;4985005;28;20133;-67
2024/02/17 02:16:48;;;;;;;4.78;2.85;;;12.80;99.90;;;;;;4985026;28;20117;-67
2024/02/17 02:19:15;;;;;;;3.75;3.05;;;12.80;99.90;;;;;;4984688;28;20125;-67
2024/02/17 02:21:41;;;;;;;4.60;2.88;;;12.80;99.90;;;;;;4984228;28;20042;-67
2024/02/17 02:24:08;;;;;;;6.93;3.22;;;12.80;99.90;;;;;;4985023;28;20425;-67
2024/02/17 02:26:34;;;;;;;3.88;3.03;;;12.80;99.90;;;;;;4984453;28;20022;-67
2024/02/17 02:29:01;;;;;;;8.85;3.10;;;12.80;99.90;;;;;;4984357;28;20042;-67
2024/02/17 02:31:29;;;;;;;4.07;2.72;;;12.80;99.90;;;;;;4982326;28;20121;-67
2024/02/17 02:33:56;;;;;;;3.80;2.97;;;12.70;99.90;;;;;;4982498;28;20113;-67
2024/02/17 02:36:22;;;;;;;4.32;3.15;;;12.60;99.90;;;;;;4984352;28;20030;-67
2024/02/17 02:38:49;;;;;;;4.18;3.10;;;12.60;99.90;;;;;;4984094;28;20050;-67
2024/02/17 02:41:15;;;;;;;5.03;2.90;;;12.50;99.90;;;;;;4984353;28;20058;-67
2024/02/17 02:43:43;;;;;;;4.85;3.00;;;12.50;99.90;;;;;;4984173;28;20045;-67
2024/02/17 02:46:09;;;;;;;5.07;3.42;;;12.40;99.90;;;;;;4984039;28;20126;-67
2024/02/17 02:48:35;;;;;;;5.20;3.17;;;12.40;99.90;;;;;;4984455;28;20478;-67
2024/02/17 02:51:01;;;;;;;5.10;3.25;;;12.40;99.90;;;;;;4984446;28;20038;-67
2024/02/17 02:53:27;;;;;;;4.57;3.28;;;12.30;99.90;;;;;;4984866;28;20041;-67
2024/02/17 02:55:53;;;;;;;5.05;3.55;;;12.30;99.90;;;;;;4984924;28;20034;-67
2024/02/17 02:58:19;;;;;;;3.90;3.10;;;12.30;99.90;;;;;;4983518;28;20056;-67
2024/02/17 03:00:46;;;;;;;4.25;2.97;;;12.30;99.90;;;;;;4982784;28;20041;-67
2024/02/17 03:03:12;;;;;;;5.45;3.55;;;12.30;99.90;;;;;;4984605;28;20030;-67
2024/02/17 03:05:38;;;;;;;6.70;3.65;;;12.20;99.90;;;;;;4983037;28;20034;-67
2024/02/17 03:08:05;;;;;;;5.80;3.60;;;12.10;99.90;;;;;;4984438;28;20030;-67
2024/02/17 03:10:31;;;;;;;5.03;3.72;;;12.00;99.90;;;;;;4983114;28;20034;-67
2024/02/17 03:12:57;;;;;;;5.90;3.67;;;12.00;99.90;;;;;;4983164;28;20823;-67
2024/02/17 03:15:23;;;;;;;4.35;3.22;;;11.90;99.90;;;;;;4984109;28;20042;-67
2024/02/17 03:17:53;;;;;;;4.93;3.42;;;11.90;99.90;;;;;;4984212;28;20049;-67
2024/02/17 03:20:19;;;;;;;4.43;3.13;;;11.90;99.90;;;;;;4984232;28;20804;-67
2024/02/17 03:22:45;;;;;;;5.88;3.47;;;11.90;99.90;;;;;;4987872;28;20086;-67
2024/02/17 03:25:11;;;;;;;7.05;4.13;;;12.00;99.90;;;;;;4983097;28;20027;-67
2024/02/17 03:27:37;;;;;;;5.38;3.58;;;12.10;99.90;;;;;;4982485;28;20831;-67
2024/02/17 03:30:07;;;;;;;5.53;3.53;;;12.10;99.90;;;;;;4984217;28;20140;-67
2024/02/17 03:32:33;;;;;;;6.80;4.00;;;12.10;99.90;;;;;;4982345;28;20026;-67
2024/02/17 03:35:03;;;;;;;6.15;4.43;;;12.20;99.90;;;;;;4984354;28;20165;-67
2024/02/17 03:37:30;;;;;;;6.88;4.88;;;12.20;99.90;;;;;;4984019;28;20109;-67
2024/02/17 03:39:56;;;;;;;5.97;3.58;;;12.30;99.90;;;;;;4984214;28;20034;-67
2024/02/17 03:42:22;;;;;;;7.07;3.85;;;12.30;99.90;;;;;;4983760;28;20041;-67
2024/02/17 03:44:48;;;;;;;5.60;4.00;;;12.40;99.90;;;;;;4983887;28;20035;-67
2024/02/17 03:47:14;;;;;;;7.78;3.92;;;12.40;99.90;;;;;;4980932;28;20136;-67
2024/02/17 03:49:40;;;;;;;6.55;3.50;;;12.40;99.90;;;;;;4982248;28;20045;-67
2024/02/17 03:52:07;;;;;;;7.43;3.70;;;12.50;99.90;;;;;;4982419;28;20026;-67
2024/02/17 03:54:33;;;;;;;5.28;3.63;;;12.50;99.90;;;;;;4984309;28;20037;-67
2024/02/17 03:56:59;;;;;;;5.75;3.28;;;12.50;99.90;;;;;;4982797;28;20034;-67
2024/02/17 03:59:25;;;;;;;4.85;3.75;;;12.50;99.90;;;;;;4980233;28;20036;-67
2024/02/17 04:01:55;;;;;;;7.45;3.28;;;12.50;99.90;;;;;;4983058;28;20037;-67
2024/02/17 04:04:24;;;;;;;6.93;4.03;;;12.50;99.90;;;;;;4981089;28;20037;-67
2024/02/17 04:06:50;;;;;;;4.90;3.47;;;12.50;99.90;;;;;;4982853;28;21230;-67
2024/02/17 04:09:16;;;;;;;8.02;4.03;;;12.40;99.90;;;;;;4982289;28;20042;-67
2024/02/17 04:11:42;;;;;;;9.05;3.63;;;12.40;99.90;;;;;;4981058;28;20063;-67
2024/02/17 04:14:08;;;;;;;5.00;3.42;;;12.30;99.90;;;;;;4981210;28;20060;-67
2024/02/17 04:16:34;;;;;;;5.28;3.85;;;12.20;99.90;;;;;;4981612;28;20506;-67
2024/02/17 04:19:00;;;;;;;5.97;3.65;;;12.10;99.90;;;;;;4981608;28;20770;-67
2024/02/17 04:21:26;;;;;;;5.57;3.42;;;12.00;99.90;;;;;;4981738;28;20042;-68
2024/02/17 04:23:52;;;;;;;8.25;4.30;;;11.90;99.90;;;;;;4981858;28;20042;-67
2024/02/17 04:26:18;;;;;;;5.13;3.40;;;11.80;99.90;;;;;;4986723;28;20034;-67
2024/02/17 04:28:45;;;;;;;5.63;3.20;;;11.80;99.90;;;;;;4987891;28;20031;-67
2024/02/17 04:31:11;;;;;;;4.97;3.05;;;11.70;99.90;;;;;;4987241;28;20031;-67
2024/02/17 04:33:38;;;;;;;4.68;2.97;;;11.60;99.90;;;;;;4988867;28;20084;-67
2024/02/17 04:36:07;;;;;;;4.45;3.25;;;11.60;99.90;;;;;;4987144;28;20137;-67
2024/02/17 04:38:34;;;;;;;4.95;3.63;;;11.50;99.90;;;;;;4987449;28;20581;-67
2024/02/17 04:41:00;;;;;;;4.05;3.03;;;11.50;99.90;;;;;;4987254;28;20030;-67
2024/02/17 04:43:26;;;;;;;4.53;2.80;;;11.40;99.90;;;;;;4987575;28;20109;-67
2024/02/17 04:45:52;;;;;;;5.72;3.28;;;11.40;99.90;;;;;;4985476;28;20498;-67
2024/02/17 04:48:18;;;;;;;6.53;3.63;;;11.30;99.90;;;;;;4986969;28;20647;-67
2024/02/17 04:50:44;;;;;;;5.43;3.42;;;11.30;99.90;;;;;;4987167;28;20030;-67
2024/02/17 04:53:10;;;;;;;5.00;3.47;;;11.20;99.90;;;;;;4987249;28;20034;-67
2024/02/17 04:55:35;;;;;;;4.85;3.08;;;11.20;99.90;;;;;;4987037;28;20032;-67
2024/02/17 04:58:03;;;;;;;7.55;3.88;;;11.10;99.90;;;;;;4986329;28;20084;-67
2024/02/17 05:00:29;;;;;;;5.57;3.13;;;11.10;99.90;;;;;;4986821;28;20722;-67
2024/02/17 05:02:55;;;;;;;7.32;3.53;;;11.10;99.90;;;;;;4986556;28;20038;-67
2024/02/17 05:05:21;;;;;;;8.45;3.42;;;11.00;99.90;;;;;;4987234;28;20398;-67
2024/02/17 05:07:46;;;;;;;4.47;3.35;;;11.00;99.90;;;;;;4986845;28;20458;-68
2024/02/17 05:10:13;;;;;;;10.38;3.88;;;10.90;99.90;;;;;;4987111;28;20057;-67
2024/02/17 05:12:39;;;;;;;6.85;4.00;;;10.90;99.90;;;;;;4987070;28;20074;-66
2024/02/17 05:15:06;;;;;;;12.55;3.97;;;10.90;99.90;;;;;;4986415;28;20080;-67
2024/02/17 05:17:32;;;;;;;5.07;3.50;;;10.80;99.90;;;;;;4986860;28;20049;-67
2024/02/17 05:19:58;;;;;;;5.30;3.30;;;10.80;99.90;;;;;;4986581;28;20061;-67
2024/02/17 05:22:24;;;;;;;7.03;3.67;;;10.80;99.90;;;;;;4986570;28;20034;-67
2024/02/17 05:24:51;;;;;;;8.23;4.10;;;10.70;99.90;;;;;;4986487;28;20112;-67
2024/02/17 05:27:17;;;;;;;6.53;3.58;;;10.70;99.90;;;;;;4986580;28;20050;-67
2024/02/17 05:29:43;;;;;;;8.10;3.88;;;10.70;99.90;;;;;;4986344;28;20498;-67
2024/02/17 05:32:09;;;;;;;7.38;4.20;;;10.70;99.90;;;;;;4984647;28;20041;-67
2024/02/17 05:34:39;;;;;;;5.82;3.88;;;10.60;99.90;;;;;;4986582;28;20033;-67
2024/02/17 05:37:06;;;;;;;8.18;3.67;;;10.60;99.90;;;;;;4986190;28;20026;-67
2024/02/17 05:39:32;;;;;;;9.40;4.25;;;10.60;99.90;;;;;;4986309;28;20042;-67
2024/02/17 05:41:59;;;;;;;12.23;3.72;;;10.60;99.90;;;;;;4986218;28;20042;-67
2024/02/17 05:44:26;;;;;;;6.25;3.90;;;10.60;99.90;;;;;;4986428;28;20034;-67
2024/02/17 05:46:52;;;;;;;12.43;4.03;;;10.60;99.90;;;;;;4984284;28;20030;-67
2024/02/17 05:49:21;;;;;;;8.60;3.58;;;10.50;99.90;;;;;;4984624;28;20034;-67
2024/02/17 05:51:51;;;;;;;5.00;3.70;;;10.50;99.90;;;;;;4985801;28;20018;-67
2024/02/17 05:54:18;;;;;;;6.18;3.35;;;10.50;99.90;;;;;;4986136;28;20101;-67
2024/02/17 05:56:45;;;;;;;6.65;3.85;;;10.50;99.90;;;;;;4985215;28;20034;-67
2024/02/17 05:59:11;;;;;;;7.13;4.20;;;10.60;99.90;;;;;;4986070;28;20038;-67
2024/02/17 06:01:37;;;;;;;7.53;3.50;;;10.60;99.90;;;;;;4982272;28;20030;-67
2024/02/17 06:04:03;;;;;;;5.93;3.40;;;10.60;99.90;;;;;;4986099;28;20034;-66
2024/02/17 06:06:29;;;;;;;7.40;3.30;;;10.60;99.90;;;;;;4985851;28;20603;-66
2024/02/17 06:08:55;;;;;;;7.28;3.67;;;10.60;99.90;;;;;;4986038;28;20042;-66
2024/02/17 06:11:21;;;;;;;6.10;3.90;;;10.60;99.90;;;;;;5000276;28;20374;-66
2024/02/17 06:13:46;;;;;;;8.25;4.00;;;10.70;99.90;;;;;;4985857;28;20030;-66
2024/02/17 06:16:13;;;;;;;5.28;3.35;;;10.70;99.90;;;;;;4985828;28;20040;-66
2024/02/17 06:21:23;;;;;;;6.68;3.75;;;10.70;99.90;;;;;;4984231;28;20034;-66
2024/02/17 06:23:51;;;;;;;6.68;2.72;;;10.70;99.90;;;;;;4984870;28;20086;-66
2024/02/17 06:26:23;;;;;;;5.57;3.22;;;10.70;99.90;;;;;;4985399;28;20026;-66
2024/02/17 06:28:48;;;;;;;6.47;2.92;;;10.70;99.90;;;;;;4985347;28;20042;-66
2024/02/17 06:31:14;;;;;;;4.75;2.97;;;10.70;99.90;;;;;;4985212;28;20026;-66
2024/02/17 06:33:40;;;;;;;7.90;3.25;;;10.70;99.90;;;;;;4985048;28;20031;-66
2024/02/17 06:36:06;;;;;;;6.80;3.05;;;10.70;99.90;;;;;;4985761;28;20030;-66
2024/02/17 06:38:32;;;;;;;3.65;2.67;;;10.80;99.90;;;;;;4985188;28;20561;-66
2024/02/17 06:40:58;;;;;;;6.30;3.13;;;10.80;99.90;;;;;;4985225;28;20125;-66
2024/02/17 06:43:24;;;;;;;4.18;2.70;;;10.90;99.90;;;;;;4984409;28;20114;-66
2024/02/17 06:45:49;;;;;;;8.88;3.17;;;10.90;99.90;;;;;;4984692;28;20026;-66
2024/02/17 06:48:15;;;;;;;5.13;2.63;;;11.00;99.90;;;;;;4983274;28;20027;-66
2024/02/17 06:50:41;;;;;;;5.13;3.13;;;11.10;99.90;;;;;;4983428;28;20494;-66
2024/02/17 06:53:07;;;;;;;5.10;3.30;;;11.10;99.90;;;;;;4984435;28;20030;-66
2024/02/17 06:55:33;;;;;;;6.07;3.50;;;11.10;99.90;;;;;;4984938;28;20118;-66
2024/02/17 06:57:59;;;;;;;7.93;3.20;;;11.20;99.90;;;;;;4985215;28;20096;-66
2024/02/17 07:00:25;;;;;;;5.07;3.38;;;11.20;99.90;;;;;;4986433;28;20372;-69
2024/02/17 07:02:51;;;;;;;4.47;2.80;;;11.30;99.90;;;;;;4984639;28;20046;-69
2024/02/17 07:05:17;;;;;;;6.10;3.00;;;11.40;99.90;;;;;;4983022;28;20042;-66
2024/02/17 07:07:43;;;;;;;7.63;3.33;;;11.40;99.90;;;;;;4982962;28;20201;-66
2024/02/17 07:10:09;;;;;;;5.30;2.90;;;11.40;99.90;;;;;;4984497;28;20109;-66
2024/02/17 07:12:35;;;;;;;6.15;3.03;;;11.50;99.90;;;;;;4984860;28;20121;-66
2024/02/17 07:15:02;;;;;;;6.05;3.63;;;11.50;99.90;;;;;;4984615;28;20038;-66
2024/02/17 07:17:28;;;;;;;6.60;2.83;;;11.60;99.90;;;;;;4984564;28;20030;-66
2024/02/17 07:19:54;;;;;;;5.80;2.85;;;11.60;99.90;;;;;;4984653;28;20042;-66
2024/02/17 07:22:20;;;;;;;5.38;2.45;;;11.60;99.90;;;;;;4984120;28;20081;-66
2024/02/17 07:24:48;;;;;;;5.97;2.38;;;11.60;99.90;;;;;;4983445;28;20114;-66
2024/02/17 07:27:15;;;;;;;5.57;2.88;;;11.70;99.90;;;;;;4984146;28;20052;-66
2024/02/17 07:29:42;;;;;;;3.97;2.67;;;11.70;99.90;;;;;;4983649;28;20042;-66
2024/02/17 07:32:08;;;;;;;3.55;2.38;;;11.80;99.90;;;;;;4963367;28;20506;-66
2024/02/17 07:34:34;;;;;;;3.25;2.85;;;11.80;99.90;;;;;;4983619;28;20089;-67
2024/02/17 07:37:02;;;;;;;6.82;2.63;;;11.80;99.90;;;;;;4983910;28;20656;-66
2024/02/17 07:39:29;;;;;;;4.85;2.53;;;11.80;99.90;;;;;;4982277;28;20086;-65
2024/02/17 07:41:55;;;;;;;4.25;2.83;;;11.80;99.90;;;;;;4984202;28;20446;-66
2024/02/17 07:44:23;;;;;;;3.50;2.42;;;11.90;99.90;;;;;;4983829;28;20027;-66
2024/02/17 07:46:50;;;;;;;3.88;3.20;;;11.90;99.90;;;;;;4983275;28;20038;-66
2024/02/17 07:49:19;;;;;;;5.90;3.08;;;12.00;99.90;;;;;;4983668;28;20506;-66
2024/02/17 07:51:45;;;;;;;4.68;2.47;;;12.10;99.90;;;;;;4984063;28;20031;-66
2024/02/17 07:54:11;;;;;;;6.70;2.65;;;12.00;99.90;;;;;;4983679;28;20410;-66
2024/02/17 07:56:36;;;;;;;4.47;2.42;;;12.10;99.90;;;;;;4983671;28;20498;-66
2024/02/17 07:59:03;;;;;;;3.75;1.98;;;12.10;99.90;;;;;;4983251;28;20041;-64
2024/02/17 08:01:29;;;;;;;4.93;2.35;;;12.10;99.90;;;;;;4983116;28;20042;-67
2024/02/17 08:03:55;;;;;;;4.53;2.28;;;12.10;99.90;;;;;;4966055;28;20056;-68
2024/02/17 08:06:21;;;;;;;3.80;2.63;;;12.10;99.90;;;;;;4984232;28;20034;-68
2024/02/17 08:08:50;;;;;;;5.53;2.38;;;12.10;99.90;;;;;;4983575;28;20022;-68
2024/02/17 08:11:16;;;;;;;5.43;2.13;;;12.10;99.90;;;;;;4982665;28;20706;-68
2024/02/17 08:13:42;;;;;;;3.03;2.45;;;12.20;99.90;;;;;;4983797;28;20092;-68
2024/02/17 08:16:09;;;;;;;2.80;2.03;;;12.30;99.90;;;;;;4981598;28;20112;-68
2024/02/17 08:18:35;;;;;;;5.53;2.30;;;12.30;99.90;;;;;;4983686;28;20035;-68
2024/02/17 08:21:02;;;;;;;14.02;7.32;;;12.40;99.90;;;;;;4983653;28;20072;-68
2024/02/17 08:23:28;;;;;;;5.43;2.88;;;12.40;99.90;;;;;;4983320;28;20041;-68
2024/02/17 08:25:55;;;;;;;4.97;2.17;;;12.30;99.90;;;;;;4983447;28;20502;-68
2024/02/17 08:28:21;;;;;;;4.75;2.80;;;12.30;99.90;;;;;;4983742;28;20038;-68
2024/02/17 08:30:51;;;;;;;10.35;4.93;;;12.30;99.90;;;;;;4981556;28;20034;-69
2024/02/17 08:33:17;;;;;;;9.77;5.05;;;12.40;99.90;;;;;;4982117;28;20045;-68
2024/02/17 08:35:45;;;;;;;4.85;2.95;;;12.50;99.90;;;;;;4981543;28;20034;-68
2024/02/17 08:38:13;;;;;;;4.50;2.35;;;12.60;99.90;;;;;;4982922;28;20035;-68
2024/02/17 08:40:39;;;;;;;6.78;2.35;;;12.70;99.90;;;;;;4983380;28;20034;-68
2024/02/17 08:43:05;;;;;;;7.82;3.28;;;12.80;99.90;;;;;;4982926;28;20033;-68
2024/02/17 08:45:31;;;;;;;10.32;4.15;;;12.80;99.90;;;;;;4983248;28;20026;-67
2024/02/17 08:47:57;;;;;;;4.78;2.25;;;13.00;99.90;;;;;;4983452;28;20777;-68
2024/02/17 08:50:23;;;;;;;3.00;1.77;;;13.00;99.90;;;;;;4981825;28;20030;-69
2024/02/17 08:52:49;;;;;;;3.83;1.70;;;12.90;99.90;;;;;;4975384;28;20827;-68
2024/02/17 08:55:16;;;;;;;7.47;3.05;;;13.00;99.90;;;;;;4976676;28;20038;-68
2024/02/17 08:57:42;;;;;;;3.40;2.03;;;13.00;99.90;;;;;;4982980;28;20041;-69
2024/02/17 09:00:09;;;;;;;5.32;3.42;;;13.10;99.90;;;;;;4981118;28;20026;-67
2024/02/17 09:02:35;;;;;;;6.75;4.13;;;13.10;99.90;;;;;;4983027;28;20030;-67
2024/02/17 09:05:05;;;;;;;6.85;5.07;;;13.10;99.90;;;;;;4983033;28;20698;-68
2024/02/17 09:07:32;;;;;;;3.67;2.03;;;13.30;99.90;;;;;;4986748;28;20026;-68
2024/02/17 09:09:59;;;;;;;1.33;1.23;;;13.50;99.90;;;;;;4983026;28;20038;-68
2024/02/17 09:12:25;;;;;;;4.15;2.40;;;13.70;99.90;;;;;;4986213;28;20018;-68
2024/02/17 09:14:51;;;;;;;3.55;1.98;;;14.00;99.90;;;;;;4986048;28;20034;-68
2024/02/17 09:17:17;;;;;;;1.88;1.45;;;14.10;99.90;;;;;;4986741;28;20026;-68
2024/02/17 09:19:44;;;;;;;4.35;1.20;;;14.20;99.90;;;;;;4986925;28;20030;-70
2024/02/17 09:22:12;;;;;;;3.30;1.30;;;14.30;99.90;;;;;;4986287;28;20015;-68
2024/02/17 09:24:38;;;;;;;2.33;1.42;;;14.30;99.90;;;;;;4984515;28;20145;-68
2024/02/17 09:27:04;;;;;;;1.30;0.80;;;14.30;99.90;;;;;;4986430;28;20032;-68
2024/02/17 09:29:31;;;;;;;1.50;0.70;;;14.20;99.90;;;;;;4986496;28;20030;-68
2024/02/17 09:31:58;;;;;;;1.10;0.70;;;14.10;99.90;;;;;;4986982;28;20041;-68
2024/02/17 09:34:24;;;;;;;0.63;0.60;;;14.00;99.90;;;;;;4987556;28;20112;-68
2024/02/17 09:36:49;;;;;;;2.05;0.70;;;14.00;99.90;;;;;;4986163;28;20077;-68
2024/02/17 09:39:15;;;;;;;1.00;0.73;;;13.90;99.90;;;;;;4986549;28;20085;-68
2024/02/17 09:41:42;;;;;;;1.25;0.90;;;13.90;99.90;;;;;;4986839;28;20030;-68
2024/02/17 09:44:09;;;;;;;2.45;0.70;;;13.80;99.90;;;;;;4983800;28;20034;-68
2024/02/17 09:46:36;;;;;;;2.70;1.88;;;13.80;99.90;;;;;;4988447;28;21886;-68
2024/02/17 09:49:03;;;;;;;3.25;0.70;;;13.80;99.90;;;;;;4985782;28;20038;-68
2024/02/17 09:51:33;;;;;;;1.40;0.70;;;13.70;99.90;;;;;;4985752;28;20036;-68
2024/02/17 09:54:00;;;;;;;1.50;0.43;;;13.60;99.90;;;;;;4985998;28;20599;-68
2024/02/17 09:56:26;;;;;;;1.10;0.90;;;13.50;99.90;;;;;;4983064;28;20125;-68
2024/02/17 09:58:53;;;;;;;3.40;1.10;;;13.40;99.90;;;;;;4985613;28;20857;-68
2024/02/17 10:01:26;;;;;;;1.92;0.90;;;13.30;99.90;;;;;;4985895;28;20042;-68
2024/02/17 10:03:53;;;;;;;4.20;2.67;;;13.20;99.90;;;;;;4985580;28;20035;-68
2024/02/17 10:06:20;;;;;;;18.60;10.45;;;13.20;99.90;;;;;;4985627;28;20477;-68
2024/02/17 10:08:49;;;;;;;3.00;2.47;;;13.20;99.90;;;;;;4985880;28;20058;-68
2024/02/17 10:11:14;;;;;;;2.63;1.83;;;13.10;99.90;;;;;;4983962;28;20780;-68
2024/02/17 10:13:42;;;;;;;1.75;1.27;;;13.00;99.90;;;;;;4985173;28;20022;-65
2024/02/17 10:16:13;;;;;;;2.78;1.90;;;12.80;99.90;;;;;;4983970;28;20042;-65
2024/02/17 10:18:44;;;;;;;3.95;1.55;;;12.80;99.90;;;;;;4985536;28;20122;-65
2024/02/17 10:21:11;;;;;;;3.95;2.13;;;13.10;99.90;;;;;;4984605;28;20214;-65
2024/02/17 10:23:37;;;;;;;10.75;3.72;;;13.70;99.90;;;;;;4984212;28;20026;-65
2024/02/17 10:26:03;;;;;;;12.43;3.80;;;14.40;99.90;;;;;;4985594;28;20049;-65
2024/02/17 10:28:29;;;;;;;6.45;2.80;;;15.40;99.90;;;;;;4985258;28;20146;-65
2024/02/17 10:30:56;;;;;;;3.22;1.58;;;16.60;99.90;;;;;;4984857;28;20683;-65
2024/02/17 10:33:24;;;;;;;2.10;1.17;;;16.90;99.90;;;;;;4984913;28;20041;-65
2024/02/17 10:35:50;;;;;;;2.03;1.05;;;16.50;99.80;;;;;;4985209;28;20134;-66
2024/02/17 10:38:16;;;;;;;3.28;1.30;;;15.90;99.90;;;;;;4985063;28;20117;-66
2024/02/17 10:40:42;;;;;;;2.70;1.05;;;15.40;99.90;;;;;;4985345;28;20026;-66
2024/02/17 10:43:09;;;;;;;3.30;1.83;;;15.10;99.90;;;;;;4984552;28;20060;-66
2024/02/17 10:45:35;;;;;;;2.58;1.20;;;14.90;99.90;;;;;;4985168;28;20027;-66
2024/02/17 10:48:07;;;;;;;1.73;0.65;;;14.80;99.90;;;;;;4984934;28;20057;-65
2024/02/17 10:50:44;;;;;;;1.90;1.10;;;14.60;99.90;;;;;;4984306;28;20043;-66
2024/02/17 10:53:31;;;;;;;3.30;1.30;;;14.30;99.90;;;;;;4984967;28;20057;-66
2024/02/17 10:55:59;;;;;;;0.98;0.82;;;14.20;99.90;;;;;;4985250;28;20085;-66
2024/02/17 10:58:26;;;;;;;1.08;0.98;;;14.20;99.90;;;;;;4979611;28;20030;-66
2024/02/17 11:00:52;;;;;;;3.15;1.25;;;14.40;99.90;;;;;;4984260;28;20045;-67
2024/02/17 11:03:25;;;;;;;1.98;1.10;;;14.40;99.90;;;;;;4984654;28;20114;-67
2024/02/17 11:05:56;;;;;;;1.70;0.93;;;14.40;99.90;;;;;;4984265;28;20046;-67
2024/02/17 11:08:22;;;;;;;4.20;2.60;;;14.40;99.90;;;;;;4984673;28;20036;-67
2024/02/17 11:10:48;;;;;;;6.60;4.00;;;14.40;99.90;;;;;;4983320;28;20588;-67
2024/02/17 11:13:24;;;;;;;1.55;1.40;;;14.30;99.90;;;;;;4984233;28;20027;-67
2024/02/17 11:16:04;;;;;;;1.92;1.83;;;14.20;99.90;;;;;;4984258;28;20040;-67
2024/02/17 11:18:36;;;;;;;1.33;0.95;;;14.40;99.90;;;;;;4983100;28;20153;-68
2024/02/17 11:21:10;;;;;;;0.75;0.40;;;15.70;99.90;;;;;;4983755;28;20030;-68
2024/02/17 11:23:41;;;;;;;2.78;0.80;;;16.10;98.00;;;;;;4984324;28;20065;-68
2024/02/17 11:26:18;;;;;;;2.53;1.25;;;17.10;96.50;;;;;;4982676;28;20098;-67
2024/02/17 11:28:46;;;;;;;1.55;0.77;;;18.20;94.40;;;;;;4982275;28;20034;-69
2024/02/17 11:31:16;;;;;;;0.32;0.30;;;18.10;92.60;;;;;;4984248;28;20037;-69
2024/02/17 11:33:43;;;;;;;2.58;0.55;;;17.50;92.60;;;;;;4982728;28;20034;-70
2024/02/17 11:36:10;;;;;;;2.17;0.50;;;16.80;93.70;;;;;;4983437;28;20514;-69
2024/02/17 11:38:37;;;;;;;0.73;0.30;;;16.30;95.40;;;;;;4984389;28;20073;-68
2024/02/17 11:41:03;;;;;;;0.82;0.30;;;16.00;95.90;;;;;;4984844;28;20606;-69
2024/02/17 11:43:32;;;;;;;1.50;0.40;;;15.70;96.20;;;;;;4982727;28;20039;-69
2024/02/17 11:45:59;;;;;;;0.50;0.30;;;15.60;95.60;;;;;;4984226;28;20030;-69
2024/02/17 11:48:25;;;;;;;1.05;0.20;;;15.20;96.10;;;;;;4979737;28;20101;-69
2024/02/17 11:51:21;;;;;;;2.30;0.63;;;15.00;97.00;;;;;;4983309;28;20062;-71
2024/02/17 11:53:47;;;;;;;1.67;0.40;;;14.70;97.40;;;;;;4982956;28;20038;-72
2024/02/17 11:56:14;;;;;;;0.50;0.40;;;14.50;97.80;;;;;;4982313;28;20494;-72
2024/02/17 11:58:42;;;;;;;2.90;0.80;;;14.30;98.00;;;;;;4982208;28;20030;-72
2024/02/17 12:01:08;;;;;;;0.63;0.50;;;14.20;99.00;;;;;;4983517;28;20054;-69
2024/02/17 12:03:34;;;;;;;1.65;0.68;;;14.10;99.40;;;;;;4983424;28;20117;-68
2024/02/17 12:06:00;;;;;;;1.05;0.60;;;14.20;99.90;;;;;;4980821;28;20041;-70
2024/02/17 12:08:30;;;;;;;0.47;0.43;;;14.30;99.70;;;;;;4981946;28;20840;-70
2024/02/17 12:10:57;;;;;;;1.45;0.50;;;14.50;99.40;;;;;;4981089;28;20165;-71
2024/02/17 12:13:23;;;;;;;8.40;0.50;;;14.50;97.00;;;;;;4982819;28;20026;-71
2024/02/17 12:15:51;;;;;;;2.08;0.22;;;14.40;96.70;;;;;;4983481;28;20523;-71
2024/02/17 12:18:17;;;;;;;1.55;0.52;;;14.20;97.10;;;;;;4981936;28;20106;-70
2024/02/17 12:20:44;;;;;;;1.30;0.40;;;14.20;98.00;;;;;;4983189;28;20040;-71
2024/02/17 12:23:10;;;;;;;2.20;0.50;;;14.10;98.20;;;;;;4981926;28;20034;-66
2024/02/17 12:25:38;;;;;;;0.77;0.40;;;14.00;98.30;;;;;;4979005;28;20121;-69
2024/02/17 12:28:08;;;;;;;4.43;0.68;;;13.90;98.10;;;;;;4977476;28;20038;-70
2024/02/17 12:30:46;;;;;;;3.30;0.60;;;13.80;98.30;;;;;;4981127;28;20081;-71
2024/02/17 12:33:12;;;;;;;1.38;0.60;;;13.90;99.20;;;;;;4982050;28;20033;-71
2024/02/17 12:35:48;;;;;;;0.40;0.40;;;14.00;98.90;;;;;;4983446;28;20026;-71
2024/02/17 12:38:19;;;;;;;1.30;0.40;;;14.00;98.60;;;;;;4983303;28;20078;-70
2024/02/17 12:40:49;;;;;;;3.70;1.02;;;14.10;97.90;;;;;;4982641;28;20038;-71
2024/02/17 12:43:21;;;;;;;4.18;0.80;;;14.10;97.10;;;;;;4983020;28;20165;-70
2024/02/17 12:45:48;;;;;;;4.20;0.40;;;14.00;97.20;;;;;;4981317;28;20402;-70
2024/02/17 12:48:15;;;;;;;5.32;0.70;;;14.00;96.20;;;;;;4987610;28;20026;-71